Csl Welland — CFK5151 — position and weather

sailwx.info

Track history (hours):
 
Tides and Currents Weather Stations Pressure Air Temp Water Temp Dewpoint Dewpoint Depression Visibility Wind Speed Wind Dir Waves Ship Positions

Csl Welland

Last reported at 2017-Dec-09 09:13 UTC. Time now 2017-Dec-13 01:46 UTC.
Position N 45°30' W 083°22'.

Length 226 m.

MMSI: 316000808.

Date/timePositionNaut miles runAvg speedWind from/ knotsBaromVisibWave heightAir tempDewpointWater temp
2017-Dec-09 09:13N 45°30' W 083°22'2 9.8
2017-Dec-09 08:59N 45°31' W 083°24'510.9
2017-Dec-09 08:30N 45°36' W 083°28'611.9
2017-Dec-09 08:00N 45°41' W 083°33'  
2017-Dec-03 14:46N 45°39' W 083°37'312.5
2017-Dec-03 14:30N 45°37' W 083°34'612.4
2017-Dec-03 14:00N 45°31' W 083°29'  
2017-Nov-30 10:29N 45°14' W 074°01'5 8.7
2017-Nov-30 09:57N 45°17' W 073°57'2 3.7
2017-Nov-30 09:30N 45°18' W 073°56'1 1.2
2017-Nov-30 09:00N 45°19' W 073°55'0 0.5
2017-Nov-30 08:30N 45°19' W 073°55'0 0.8
2017-Nov-30 08:00N 45°19' W 073°55'0 0.0
2017-Nov-30 07:30N 45°19' W 073°55'0 0.2
2017-Nov-30 07:00N 45°19' W 073°55'3 6.3
2017-Nov-30 06:30N 45°21' W 073°51'5 9.9
2017-Nov-30 06:00N 45°24' W 073°45'4 7.5
2017-Nov-30 05:30N 45°25' W 073°40'3 5.7
2017-Nov-30 05:00N 45°24' W 073°36'2 3.0
2017-Nov-30 04:26N 45°24' W 073°34'1 1.4
2017-Nov-30 03:59N 45°24' W 073°33'  
Track history (hours):
 
Tides and Currents Weather Stations Pressure Air Temp Water Temp Dewpoint Dewpoint Depression Visibility Wind Speed Wind Dir Waves Ship Positions

Csl Welland

Last reported at 2017-Dec-09 09:13 UTC. Time now 2017-Dec-13 01:46 UTC.
Position N 45°30' W 083°22'.

Length 226 m.

MMSI: 316000808.

Date/timePositionNaut miles runAvg speedWind from/ knotsBaromVisibWave heightAir tempDewpointWater temp
2017-Dec-09 09:13N 45°30' W 083°22'2 9.8
2017-Dec-09 08:59N 45°31' W 083°24'510.9
2017-Dec-09 08:30N 45°36' W 083°28'611.9
2017-Dec-09 08:00N 45°41' W 083°33'  
2017-Dec-03 14:46N 45°39' W 083°37'312.5
2017-Dec-03 14:30N 45°37' W 083°34'612.4
2017-Dec-03 14:00N 45°31' W 083°29'  
2017-Nov-30 10:29N 45°14' W 074°01'5 8.7
2017-Nov-30 09:57N 45°17' W 073°57'2 3.7
2017-Nov-30 09:30N 45°18' W 073°56'1 1.2
2017-Nov-30 09:00N 45°19' W 073°55'0 0.5
2017-Nov-30 08:30N 45°19' W 073°55'0 0.8
2017-Nov-30 08:00N 45°19' W 073°55'0 0.0
2017-Nov-30 07:30N 45°19' W 073°55'0 0.2
2017-Nov-30 07:00N 45°19' W 073°55'3 6.3
2017-Nov-30 06:30N 45°21' W 073°51'5 9.9
2017-Nov-30 06:00N 45°24' W 073°45'4 7.5
2017-Nov-30 05:30N 45°25' W 073°40'3 5.7
2017-Nov-30 05:00N 45°24' W 073°36'2 3.0
2017-Nov-30 04:26N 45°24' W 073°34'1 1.4
2017-Nov-30 03:59N 45°24' W 073°33'  

Dump ship's entire track history